createdAt,value
2023-03-06T00:00:38.088Z,100.00
2023-03-06T00:03:09.964Z,100.00
2023-03-06T00:05:42.202Z,100.00
2023-03-06T00:08:14.103Z,100.00
2023-03-06T00:10:45.959Z,100.00
2023-03-06T00:13:19.438Z,100.00
2023-03-06T00:15:51.048Z,100.00
2023-03-06T00:18:23.055Z,100.00
2023-03-06T00:20:54.884Z,100.00
2023-03-06T00:23:27.486Z,100.00
2023-03-06T00:25:59.364Z,100.00
2023-03-06T00:28:31.522Z,100.00
2023-03-06T00:31:03.394Z,100.00
2023-03-06T00:33:34.893Z,100.00
2023-03-06T00:36:06.750Z,100.00
2023-03-06T00:38:38.326Z,100.00
2023-03-06T00:41:09.837Z,100.00
2023-03-06T00:43:41.429Z,100.00
2023-03-06T00:46:13.069Z,100.00
2023-03-06T00:48:44.592Z,100.00
2023-03-06T00:51:17.481Z,100.00
2023-03-06T00:53:48.983Z,100.00
2023-03-06T00:56:20.611Z,100.00
2023-03-06T00:58:52.140Z,100.00
2023-03-06T01:01:24.125Z,100.00
2023-03-06T01:03:55.703Z,100.00
2023-03-06T01:06:27.228Z,100.00
2023-03-06T01:08:58.725Z,100.00
2023-03-06T01:11:30.235Z,100.00
2023-03-06T01:14:01.751Z,100.00
2023-03-06T01:16:33.332Z,100.00
2023-03-06T01:19:04.896Z,100.00
2023-03-06T01:21:36.870Z,100.00
2023-03-06T01:24:08.380Z,100.00
2023-03-06T01:26:40.224Z,100.00
2023-03-06T01:29:11.725Z,100.00
2023-03-06T01:31:43.586Z,100.00
2023-03-06T01:34:15.119Z,100.00
2023-03-06T01:36:46.829Z,100.00
2023-03-06T01:39:18.321Z,100.00
2023-03-06T01:41:50.274Z,100.00
2023-03-06T01:44:21.804Z,100.00
2023-03-06T01:46:53.644Z,100.00
2023-03-06T01:49:25.219Z,100.00
2023-03-06T01:51:57.116Z,100.00
2023-03-06T01:54:28.622Z,100.00
2023-03-06T01:57:00.510Z,100.00
2023-03-06T01:59:31.995Z,100.00
2023-03-06T02:02:03.842Z,100.00
2023-03-06T02:04:35.419Z,100.00
2023-03-06T02:07:07.315Z,100.00
2023-03-06T02:09:38.848Z,100.00
2023-03-06T02:12:10.676Z,100.00
2023-03-06T02:14:42.240Z,100.00
2023-03-06T02:17:14.033Z,100.00
2023-03-06T02:19:45.542Z,100.00
2023-03-06T02:22:17.452Z,100.00
2023-03-06T02:24:48.963Z,100.00
2023-03-06T02:27:20.607Z,100.00
2023-03-06T02:29:52.140Z,100.00
2023-03-06T02:32:24.025Z,100.00
2023-03-06T02:34:55.627Z,100.00
2023-03-06T02:37:27.172Z,100.00
2023-03-06T02:39:58.765Z,100.00
2023-03-06T02:42:30.300Z,100.00
2023-03-06T02:45:01.845Z,100.00
2023-03-06T02:47:33.422Z,100.00
2023-03-06T02:50:04.941Z,100.00
2023-03-06T02:52:36.817Z,100.00
2023-03-06T02:55:08.350Z,100.00
2023-03-06T02:57:40.044Z,100.00
2023-03-06T03:00:11.567Z,100.00
2023-03-06T03:02:43.735Z,100.00
2023-03-06T03:05:15.338Z,100.00
2023-03-06T03:07:47.173Z,100.00
2023-03-06T03:10:18.694Z,100.00
2023-03-06T03:12:50.491Z,100.00
2023-03-06T03:15:22.078Z,100.00
2023-03-06T03:17:53.807Z,100.00
2023-03-06T03:20:25.341Z,100.00
2023-03-06T03:22:57.045Z,100.00
2023-03-06T03:25:28.557Z,100.00
2023-03-06T03:28:00.115Z,100.00
2023-03-06T03:30:31.647Z,100.00
2023-03-06T03:33:03.730Z,100.00
2023-03-06T03:35:35.286Z,100.00
2023-03-06T03:38:06.886Z,100.00
2023-03-06T03:40:38.408Z,100.00
2023-03-06T03:43:10.396Z,100.00
2023-03-06T03:45:41.912Z,100.00
2023-03-06T03:48:13.741Z,100.00
2023-03-06T03:50:45.244Z,100.00
2023-03-06T03:53:17.313Z,100.00
2023-03-06T03:55:48.838Z,100.00
2023-03-06T03:58:20.694Z,100.00
2023-03-06T04:00:52.258Z,100.00
2023-03-06T04:03:24.065Z,100.00
2023-03-06T04:05:57.877Z,100.00
2023-03-06T04:08:29.479Z,100.00
2023-03-06T04:11:00.983Z,100.00
2023-03-06T04:13:32.533Z,100.00
2023-03-06T04:16:04.100Z,100.00
2023-03-06T04:18:36.084Z,100.00
2023-03-06T04:21:07.614Z,100.00
2023-03-06T04:23:39.457Z,100.00
2023-03-06T04:26:11.012Z,100.00
2023-03-06T04:28:42.873Z,100.00
2023-03-06T04:31:14.426Z,100.00
2023-03-06T04:33:46.348Z,100.00
2023-03-06T04:36:17.850Z,100.00
2023-03-06T04:38:49.712Z,100.00
2023-03-06T04:41:21.231Z,100.00
2023-03-06T04:46:47.701Z,100.00
2023-03-06T04:49:19.469Z,100.00
2023-03-06T04:51:50.974Z,100.00
2023-03-06T04:54:22.918Z,100.00
2023-03-06T04:56:54.449Z,100.00
2023-03-06T04:59:26.138Z,100.00
2023-03-06T05:01:58.140Z,100.00
2023-03-06T05:04:29.753Z,100.00
2023-03-06T05:07:01.238Z,100.00
2023-03-06T05:09:32.788Z,100.00
2023-03-06T05:12:04.280Z,100.00
2023-03-06T05:14:36.263Z,100.00
2023-03-06T05:17:07.768Z,100.00
2023-03-06T05:19:39.605Z,100.00
2023-03-06T05:22:11.139Z,100.00
2023-03-06T05:24:42.922Z,100.00
2023-03-06T05:27:16.827Z,100.00
2023-03-06T05:29:48.857Z,100.00
2023-03-06T05:32:20.365Z,100.00
2023-03-06T05:34:52.176Z,100.00
2023-03-06T05:37:23.748Z,100.00
2023-03-06T05:39:55.651Z,100.00
2023-03-06T05:42:28.740Z,100.00
2023-03-06T05:45:00.608Z,100.00
2023-03-06T05:47:32.120Z,100.00
2023-03-06T05:50:04.030Z,100.00
2023-03-06T05:52:35.581Z,100.00
2023-03-06T05:55:07.796Z,100.00
2023-03-06T05:57:39.366Z,100.00
2023-03-06T06:00:11.099Z,100.00
2023-03-06T06:02:43.394Z,100.00
2023-03-06T06:05:15.203Z,100.00
2023-03-06T06:07:46.697Z,100.00
2023-03-06T06:10:18.655Z,100.00
2023-03-06T06:12:50.168Z,100.00
2023-03-06T06:15:21.949Z,100.00
2023-03-06T06:17:53.463Z,100.00
2023-03-06T06:20:25.476Z,100.00
2023-03-06T06:22:57.066Z,100.00
2023-03-06T06:25:28.578Z,100.00
2023-03-06T06:28:00.433Z,100.00
2023-03-06T06:30:31.929Z,100.00
2023-03-06T06:33:03.906Z,100.00
2023-03-06T06:35:35.404Z,100.00
2023-03-06T06:38:07.291Z,100.00
2023-03-06T06:40:38.780Z,100.00
2023-03-06T06:43:10.658Z,100.00
2023-03-06T06:45:44.119Z,100.00
2023-03-06T06:48:17.543Z,100.00
2023-03-06T06:50:49.520Z,100.00
2023-03-06T06:53:21.364Z,100.00
2023-03-06T06:55:52.872Z,100.00
2023-03-06T06:58:24.707Z,100.00
2023-03-06T07:00:56.208Z,100.00
2023-03-06T07:03:27.700Z,100.00
2023-03-06T07:05:59.393Z,100.00
2023-03-06T07:08:30.928Z,100.00
2023-03-06T07:11:02.539Z,100.00
2023-03-06T07:13:34.131Z,100.00
2023-03-06T07:16:05.684Z,100.00
2023-03-06T07:18:37.578Z,100.00
2023-03-06T07:21:09.093Z,100.00
2023-03-06T07:23:40.990Z,100.00
2023-03-06T07:26:12.503Z,100.00
2023-03-06T07:28:52.272Z,100.00
2023-03-06T07:31:24.449Z,100.00
2023-03-06T07:33:56.387Z,100.00
2023-03-06T07:36:28.001Z,100.00
2023-03-06T07:38:59.867Z,100.00
2023-03-06T07:41:31.435Z,100.00
2023-03-06T07:44:03.352Z,100.00
2023-03-06T07:46:34.887Z,100.00
2023-03-06T07:49:06.761Z,100.00
2023-03-06T07:51:38.324Z,100.00
2023-03-06T07:54:10.251Z,100.00
2023-03-06T07:56:41.748Z,100.00
2023-03-06T07:59:13.631Z,100.00
2023-03-06T08:01:45.143Z,100.00
2023-03-06T08:04:17.039Z,100.00
2023-03-06T08:06:48.559Z,100.00
2023-03-06T08:09:20.484Z,100.00
2023-03-06T08:11:51.974Z,100.00
2023-03-06T08:14:23.654Z,100.00
2023-03-06T08:16:55.176Z,100.00
2023-03-06T08:19:26.844Z,100.00
2023-03-06T08:21:58.329Z,100.00
2023-03-06T08:24:29.836Z,100.00
2023-03-06T08:27:01.336Z,100.00
2023-03-06T08:29:32.873Z,100.00
2023-03-06T08:32:04.453Z,100.00
2023-03-06T08:34:36.249Z,100.00
2023-03-06T08:37:07.816Z,100.00
2023-03-06T08:39:39.863Z,100.00
2023-03-06T08:42:11.392Z,100.00
2023-03-06T08:44:43.318Z,100.00
2023-03-06T08:47:14.899Z,100.00
2023-03-06T08:49:46.927Z,100.00
2023-03-06T08:52:19.821Z,100.00
2023-03-06T08:54:51.808Z,100.00
2023-03-06T08:57:23.906Z,100.00
2023-03-06T08:59:55.449Z,100.00
2023-03-06T09:02:27.066Z,100.00
2023-03-06T09:04:59.800Z,100.00
2023-03-06T09:07:31.309Z,100.00
2023-03-06T09:10:03.151Z,100.00
2023-03-06T09:12:43.898Z,100.00
2023-03-06T09:15:21.223Z,100.00
2023-03-06T09:17:54.161Z,100.00
2023-03-06T09:20:25.763Z,100.00
2023-03-06T09:22:57.534Z,100.00
2023-03-06T09:25:29.048Z,100.00
2023-03-06T09:28:10.799Z,100.00
2023-03-06T09:30:43.442Z,100.00
2023-03-06T09:33:14.977Z,100.00
2023-03-06T09:35:46.846Z,100.00
2023-03-06T09:38:18.351Z,100.00
2023-03-06T09:40:50.415Z,100.00
2023-03-06T09:43:21.933Z,100.00
2023-03-06T09:45:53.877Z,100.00
2023-03-06T09:48:25.374Z,100.00
2023-03-06T09:50:58.782Z,100.00
2023-03-06T09:53:30.339Z,100.00
2023-03-06T09:56:02.295Z,100.00
2023-03-06T09:58:33.792Z,100.00
2023-03-06T10:01:06.030Z,100.00
2023-03-06T10:03:37.908Z,100.00
2023-03-06T10:06:09.545Z,100.00
2023-03-06T10:08:41.378Z,100.00
2023-03-06T10:11:12.873Z,100.00
2023-03-06T10:13:44.808Z,100.00
2023-03-06T10:16:16.354Z,100.00
2023-03-06T10:18:48.178Z,100.00
2023-03-06T10:21:20.918Z,100.00
2023-03-06T10:23:52.852Z,100.00
2023-03-06T10:26:24.569Z,100.00
2023-03-06T10:28:56.366Z,100.00
2023-03-06T10:31:28.037Z,100.00
2023-03-06T10:33:59.922Z,100.00
2023-03-06T10:36:31.433Z,100.00
2023-03-06T10:39:03.271Z,100.00
2023-03-06T10:41:38.356Z,100.00
2023-03-06T10:44:10.319Z,100.00
2023-03-06T10:46:45.191Z,100.00
2023-03-06T10:49:16.913Z,100.00
2023-03-06T10:51:48.429Z,100.00
2023-03-06T10:54:20.473Z,100.00
2023-03-06T10:56:52.020Z,100.00
2023-03-06T10:59:25.670Z,100.00
2023-03-06T11:01:57.313Z,100.00
2023-03-06T11:04:28.988Z,100.00
2023-03-06T11:07:00.528Z,100.00
2023-03-06T11:09:33.253Z,100.00
2023-03-06T11:12:04.774Z,100.00
2023-03-06T11:14:36.734Z,100.00
2023-03-06T11:17:08.232Z,100.00
2023-03-06T11:19:40.091Z,100.00
2023-03-06T11:22:11.595Z,100.00
2023-03-06T11:24:43.493Z,98.37
2023-03-06T11:27:14.989Z,99.40
2023-03-06T11:29:46.717Z,97.81
2023-03-06T11:32:18.302Z,97.71
2023-03-06T11:34:50.792Z,99.67
2023-03-06T11:37:22.455Z,100.00
2023-03-06T11:39:54.993Z,98.16
2023-03-06T11:42:26.549Z,99.32
2023-03-06T11:44:58.240Z,99.30
2023-03-06T11:47:29.772Z,94.68
2023-03-06T11:50:01.598Z,95.26
2023-03-06T11:52:33.114Z,92.36
2023-03-06T11:55:04.974Z,95.81
2023-03-06T11:57:36.451Z,95.74
2023-03-06T12:00:08.621Z,96.92
2023-03-06T12:02:40.293Z,97.09
2023-03-06T12:05:12.135Z,96.00
2023-03-06T12:07:43.669Z,99.91
2023-03-06T12:10:15.542Z,93.93
2023-03-06T12:12:47.052Z,93.62
2023-03-06T12:15:18.781Z,93.45
2023-03-06T12:17:50.274Z,93.23
2023-03-06T12:20:22.331Z,89.31
2023-03-06T12:22:58.264Z,92.43
2023-03-06T12:25:34.211Z,91.79
2023-03-06T12:28:05.724Z,91.37
2023-03-06T12:30:37.508Z,89.59
2023-03-06T12:33:08.999Z,89.56
2023-03-06T12:35:40.961Z,87.82
2023-03-06T12:38:12.484Z,92.47
2023-03-06T12:40:44.227Z,90.61
2023-03-06T12:43:15.765Z,89.87
2023-03-06T12:45:50.379Z,88.32
2023-03-06T12:48:21.881Z,85.76
2023-03-06T12:50:53.631Z,85.54
2023-03-06T12:53:25.151Z,86.44
2023-03-06T12:55:56.876Z,87.27
2023-03-06T12:58:28.685Z,85.51
2023-03-06T13:01:04.210Z,84.60
2023-03-06T13:03:36.646Z,86.32
2023-03-06T13:06:08.234Z,88.28
2023-03-06T13:08:39.835Z,86.74
2023-03-06T13:11:11.674Z,90.06
2023-03-06T13:13:43.196Z,85.38
2023-03-06T13:16:15.126Z,83.49
2023-03-06T13:18:46.781Z,84.64
2023-03-06T13:21:18.538Z,83.91
2023-03-06T13:23:50.599Z,82.75
2023-03-06T13:26:22.428Z,78.97
2023-03-06T13:28:54.056Z,78.98
2023-03-06T13:31:27.832Z,75.99
2023-03-06T13:33:59.717Z,75.61
2023-03-06T13:36:31.331Z,76.60
2023-03-06T13:39:03.150Z,76.92
2023-03-06T13:41:34.745Z,73.88
2023-03-06T13:44:06.237Z,71.99
2023-03-06T13:46:38.000Z,73.86
2023-03-06T13:49:09.561Z,75.45
2023-03-06T13:51:41.377Z,75.16
2023-03-06T13:54:13.375Z,75.84
2023-03-06T13:56:45.300Z,78.22
2023-03-06T13:59:16.846Z,78.57
2023-03-06T14:01:48.778Z,78.28
2023-03-06T14:04:20.367Z,79.08
2023-03-06T14:06:52.279Z,75.28
2023-03-06T14:09:23.842Z,78.60
2023-03-06T14:11:55.669Z,76.64
2023-03-06T14:14:27.162Z,72.63
2023-03-06T14:16:58.877Z,72.56
2023-03-06T14:19:30.361Z,75.57
2023-03-06T14:22:03.939Z,75.56
2023-03-06T14:24:35.516Z,74.82
2023-03-06T14:27:07.484Z,75.47
2023-03-06T14:29:38.991Z,76.03
2023-03-06T14:32:10.727Z,76.47
2023-03-06T14:34:42.265Z,80.93
2023-03-06T14:37:14.102Z,79.86
2023-03-06T14:39:46.685Z,79.03
2023-03-06T14:42:18.638Z,79.81
2023-03-06T14:44:50.163Z,78.82
2023-03-06T14:47:22.472Z,79.40
2023-03-06T14:49:53.997Z,80.92
2023-03-06T14:52:25.700Z,79.20
2023-03-06T14:54:57.204Z,77.51
2023-03-06T14:57:28.744Z,78.34
2023-03-06T15:00:00.313Z,77.92
2023-03-06T15:02:33.015Z,76.97
2023-03-06T15:05:04.971Z,76.83
2023-03-06T15:07:37.347Z,79.65
2023-03-06T15:10:10.750Z,78.62
2023-03-06T15:12:42.257Z,78.36
2023-03-06T15:15:14.086Z,77.15
2023-03-06T15:17:45.676Z,79.17
2023-03-06T15:20:17.521Z,79.29
2023-03-06T15:22:49.013Z,77.64
2023-03-06T15:25:20.899Z,79.28
2023-03-06T15:27:52.410Z,79.24
2023-03-06T15:30:24.327Z,79.38
2023-03-06T15:32:55.842Z,80.95
2023-03-06T15:35:27.553Z,79.97
2023-03-06T15:37:59.298Z,81.75
2023-03-06T15:40:31.791Z,80.66
2023-03-06T15:43:03.311Z,83.51
2023-03-06T15:45:34.869Z,83.74
2023-03-06T15:48:06.384Z,83.28
2023-03-06T15:50:38.370Z,85.29
2023-03-06T15:53:09.926Z,87.31
2023-03-06T15:55:41.754Z,87.29
2023-03-06T15:58:13.259Z,87.92
2023-03-06T16:00:45.187Z,89.73
2023-03-06T16:03:16.717Z,90.70
2023-03-06T16:05:48.603Z,91.16
2023-03-06T16:08:20.100Z,91.27
2023-03-06T16:10:52.703Z,92.31
2023-03-06T16:13:24.206Z,93.68
2023-03-06T16:15:55.735Z,93.40
2023-03-06T16:18:27.240Z,93.48
2023-03-06T16:20:59.120Z,94.57
2023-03-06T16:23:30.696Z,95.35
2023-03-06T16:26:02.513Z,95.44
2023-03-06T16:28:34.207Z,95.09
2023-03-06T16:31:06.045Z,96.65
2023-03-06T16:33:37.610Z,98.87
2023-03-06T16:36:09.151Z,100.00
2023-03-06T16:38:40.645Z,100.00
2023-03-06T16:41:12.510Z,100.00
2023-03-06T16:43:44.028Z,100.00
2023-03-06T16:46:15.919Z,100.00
2023-03-06T16:48:47.452Z,100.00
2023-03-06T16:51:18.993Z,100.00
2023-03-06T16:53:53.307Z,100.00
2023-03-06T16:56:25.164Z,100.00
2023-03-06T16:58:56.661Z,100.00
2023-03-06T17:01:28.180Z,100.00
2023-03-06T17:03:59.784Z,100.00
2023-03-06T17:06:31.379Z,100.00
2023-03-06T17:09:02.884Z,100.00
2023-03-06T17:11:34.489Z,100.00
2023-03-06T17:14:06.910Z,100.00
2023-03-06T17:16:40.576Z,100.00
2023-03-06T17:19:14.296Z,100.00
2023-03-06T17:21:46.141Z,100.00
2023-03-06T17:24:17.650Z,100.00
2023-03-06T17:26:49.497Z,100.00
2023-03-06T17:29:21.072Z,100.00
2023-03-06T17:31:52.937Z,100.00
2023-03-06T17:34:24.707Z,100.00
2023-03-06T17:36:56.718Z,100.00
2023-03-06T17:39:29.303Z,100.00
2023-03-06T17:42:01.533Z,100.00
2023-03-06T17:44:33.070Z,100.00
2023-03-06T17:47:04.934Z,100.00
2023-03-06T17:49:36.460Z,100.00
2023-03-06T17:52:08.359Z,100.00
2023-03-06T17:54:39.881Z,100.00
2023-03-06T17:57:11.469Z,100.00
2023-03-06T17:59:47.688Z,100.00
2023-03-06T18:02:19.224Z,100.00
2023-03-06T18:04:50.770Z,100.00
2023-03-06T18:07:22.751Z,100.00
2023-03-06T18:09:54.436Z,100.00
2023-03-06T18:12:26.229Z,100.00
2023-03-06T18:14:57.749Z,100.00
2023-03-06T18:17:29.258Z,100.00
2023-03-06T18:20:00.783Z,100.00
2023-03-06T18:22:32.423Z,100.00
2023-03-06T18:25:03.967Z,100.00
2023-03-06T18:27:35.923Z,100.00
2023-03-06T18:30:07.525Z,100.00
2023-03-06T18:32:39.483Z,100.00
2023-03-06T18:35:11.040Z,100.00
2023-03-06T18:37:42.924Z,100.00
2023-03-06T18:40:14.472Z,100.00
2023-03-06T18:42:46.322Z,100.00
2023-03-06T18:45:17.900Z,100.00
2023-03-06T18:47:49.721Z,100.00
2023-03-06T18:50:21.236Z,100.00
2023-03-06T18:52:53.113Z,100.00
2023-03-06T18:55:24.626Z,100.00
2023-03-06T18:57:56.152Z,100.00
2023-03-06T19:00:27.675Z,100.00
2023-03-06T19:02:59.487Z,100.00
2023-03-06T19:05:30.983Z,100.00
2023-03-06T19:08:02.924Z,100.00
2023-03-06T19:10:34.695Z,100.00
2023-03-06T19:13:06.535Z,100.00
2023-03-06T19:15:38.038Z,100.00
2023-03-06T19:18:09.985Z,100.00
2023-03-06T19:20:41.497Z,100.00
2023-03-06T19:23:13.781Z,100.00
2023-03-06T19:25:45.307Z,100.00
2023-03-06T19:28:17.163Z,100.00
2023-03-06T19:30:48.689Z,100.00
2023-03-06T19:33:20.557Z,100.00
2023-03-06T19:35:52.107Z,100.00
2023-03-06T19:38:23.676Z,100.00
2023-03-06T19:40:55.331Z,100.00
2023-03-06T19:43:26.941Z,100.00
2023-03-06T19:45:58.529Z,100.00
2023-03-06T19:48:30.049Z,100.00
2023-03-06T19:51:01.556Z,100.00
2023-03-06T19:53:33.808Z,100.00
2023-03-06T19:56:05.336Z,100.00
2023-03-06T19:58:37.264Z,100.00
2023-03-06T20:01:08.849Z,100.00
2023-03-06T20:03:40.729Z,100.00
2023-03-06T20:06:12.250Z,100.00
2023-03-06T20:08:44.341Z,100.00
2023-03-06T20:11:15.839Z,100.00
2023-03-06T20:13:47.978Z,100.00
2023-03-06T20:16:19.582Z,100.00
2023-03-06T20:18:51.951Z,100.00
2023-03-06T20:21:23.929Z,100.00
2023-03-06T20:23:56.969Z,100.00
2023-03-06T20:26:28.583Z,100.00
2023-03-06T20:29:00.207Z,100.00
2023-03-06T20:31:31.892Z,100.00
2023-03-06T20:34:03.463Z,100.00
2023-03-06T20:36:36.361Z,100.00
2023-03-06T20:39:08.826Z,100.00
2023-03-06T20:41:40.359Z,100.00
2023-03-06T20:44:13.405Z,100.00
2023-03-06T20:46:45.461Z,100.00
2023-03-06T20:49:17.053Z,100.00
2023-03-06T20:51:50.243Z,100.00
2023-03-06T20:54:21.754Z,100.00
2023-03-06T20:56:53.287Z,100.00
2023-03-06T20:59:25.085Z,100.00
2023-03-06T21:01:56.961Z,100.00
2023-03-06T21:04:28.592Z,100.00
2023-03-06T21:07:00.466Z,100.00
2023-03-06T21:09:34.429Z,100.00
2023-03-06T21:12:06.282Z,100.00
2023-03-06T21:14:37.961Z,100.00
2023-03-06T21:17:09.845Z,100.00
2023-03-06T21:19:41.511Z,100.00
2023-03-06T21:22:13.924Z,100.00
2023-03-06T21:24:45.500Z,100.00
2023-03-06T21:27:17.349Z,100.00
2023-03-06T21:29:48.862Z,100.00
2023-03-06T21:32:20.738Z,100.00
2023-03-06T21:34:52.304Z,100.00
2023-03-06T21:37:23.900Z,100.00
2023-03-06T21:39:55.407Z,100.00
2023-03-06T21:42:27.032Z,100.00
2023-03-06T21:44:59.799Z,100.00
2023-03-06T21:47:31.772Z,100.00
2023-03-06T21:50:03.271Z,100.00
2023-03-06T21:52:34.782Z,100.00
2023-03-06T21:55:06.482Z,100.00
2023-03-06T21:57:38.055Z,100.00
2023-03-06T22:00:11.180Z,100.00
2023-03-06T22:02:44.393Z,100.00
2023-03-06T22:05:15.889Z,100.00
2023-03-06T22:07:47.443Z,100.00
2023-03-06T22:10:18.972Z,100.00
2023-03-06T22:12:50.848Z,100.00
2023-03-06T22:15:22.403Z,100.00
2023-03-06T22:17:53.948Z,100.00
2023-03-06T22:20:25.457Z,100.00
2023-03-06T22:22:57.323Z,100.00
2023-03-06T22:25:28.839Z,100.00
2023-03-06T22:28:00.577Z,100.00
2023-03-06T22:30:32.142Z,100.00
2023-03-06T22:33:04.094Z,100.00
2023-03-06T22:35:35.857Z,100.00
2023-03-06T22:38:07.777Z,100.00
2023-03-06T22:40:39.283Z,100.00
2023-03-06T22:43:11.115Z,100.00
2023-03-06T22:45:42.627Z,100.00
2023-03-06T22:48:14.550Z,100.00
2023-03-06T22:50:46.054Z,100.00
2023-03-06T22:53:17.733Z,100.00
2023-03-06T22:55:49.249Z,100.00
2023-03-06T22:58:21.097Z,100.00
2023-03-06T23:00:52.717Z,100.00
2023-03-06T23:03:24.557Z,100.00
2023-03-06T23:05:56.074Z,100.00
2023-03-06T23:08:27.591Z,100.00
2023-03-06T23:10:59.097Z,100.00
2023-03-06T23:13:30.615Z,100.00
2023-03-06T23:16:02.303Z,100.00
2023-03-06T23:18:34.264Z,100.00
2023-03-06T23:21:05.780Z,100.00
2023-03-06T23:23:37.622Z,100.00
2023-03-06T23:26:09.154Z,100.00
2023-03-06T23:28:41.100Z,100.00
2023-03-06T23:31:12.700Z,100.00
2023-03-06T23:33:44.637Z,100.00
2023-03-06T23:36:16.220Z,100.00
2023-03-06T23:38:48.289Z,100.00
2023-03-06T23:41:19.795Z,100.00
2023-03-06T23:43:53.467Z,100.00
2023-03-06T23:46:26.487Z,100.00
2023-03-06T23:48:58.266Z,100.00
2023-03-06T23:51:29.779Z,100.00
2023-03-06T23:54:01.618Z,100.00
2023-03-06T23:56:34.170Z,100.00
2023-03-06T23:59:06.197Z,100.00
